createdAt,value
2023-05-16T00:00:06.677Z,5.70
2023-05-16T00:02:36.047Z,5.90
2023-05-16T00:05:04.467Z,5.57
2023-05-16T00:07:32.324Z,5.32
2023-05-16T00:10:00.155Z,5.53
2023-05-16T00:12:28.265Z,5.70
2023-05-16T00:14:57.046Z,5.95
2023-05-16T00:17:28.772Z,5.82
2023-05-16T00:20:00.162Z,5.68
2023-05-16T00:22:28.250Z,5.97
2023-05-16T00:24:56.025Z,5.90
2023-05-16T00:27:23.799Z,6.38
2023-05-16T00:29:51.584Z,6.47
2023-05-16T00:32:19.674Z,5.50
2023-05-16T00:34:47.593Z,6.18
2023-05-16T00:37:16.754Z,6.38
2023-05-16T00:39:44.492Z,6.28
2023-05-16T00:42:12.460Z,5.63
2023-05-16T00:44:40.332Z,5.60
2023-05-16T00:47:08.341Z,6.40
2023-05-16T00:49:36.244Z,5.90
2023-05-16T00:52:04.754Z,6.60
2023-05-16T00:54:34.860Z,6.45
2023-05-16T00:57:03.471Z,6.47
2023-05-16T00:59:31.333Z,5.63
2023-05-16T01:01:59.372Z,6.30
2023-05-16T01:04:29.100Z,6.38
2023-05-16T01:06:57.616Z,6.50
2023-05-16T01:09:25.534Z,6.30
2023-05-16T01:12:03.762Z,6.05
2023-05-16T01:14:42.465Z,6.85
2023-05-16T01:17:20.098Z,6.38
2023-05-16T01:19:57.747Z,6.10
2023-05-16T01:22:38.483Z,6.03
2023-05-16T01:25:18.717Z,6.30
2023-05-16T01:27:49.153Z,6.60
2023-05-16T01:30:18.876Z,6.40
2023-05-16T01:32:47.058Z,6.18
2023-05-16T01:35:17.780Z,6.13
2023-05-16T01:37:53.354Z,6.63
2023-05-16T01:40:29.163Z,6.43
2023-05-16T01:43:03.594Z,6.15
2023-05-16T01:45:35.634Z,6.30
2023-05-16T01:48:11.354Z,6.60
2023-05-16T01:50:45.744Z,6.35
2023-05-16T01:53:18.737Z,7.00
2023-05-16T01:55:49.106Z,6.60
2023-05-16T01:58:22.108Z,6.13
2023-05-16T02:00:49.939Z,6.47
2023-05-16T02:03:18.594Z,6.40
2023-05-16T02:05:46.397Z,6.65
2023-05-16T02:08:14.632Z,7.35
2023-05-16T02:10:42.417Z,7.03
2023-05-16T02:13:10.772Z,6.90
2023-05-16T02:15:39.959Z,6.73
2023-05-16T02:18:07.829Z,6.93
2023-05-16T02:20:35.699Z,7.15
2023-05-16T02:23:03.712Z,7.00
2023-05-16T02:25:31.510Z,6.97
2023-05-16T02:27:59.301Z,7.28
2023-05-16T02:30:27.147Z,7.70
2023-05-16T02:32:56.320Z,7.88
2023-05-16T02:35:24.544Z,8.23
2023-05-16T02:37:52.616Z,7.45
2023-05-16T02:40:20.536Z,7.65
2023-05-16T02:42:48.324Z,7.55
2023-05-16T02:45:16.320Z,7.65
2023-05-16T02:47:44.104Z,7.45
2023-05-16T02:50:13.522Z,7.30
2023-05-16T02:52:41.424Z,7.57
2023-05-16T02:55:21.609Z,8.75
2023-05-16T02:57:50.588Z,7.93
2023-05-16T03:00:19.012Z,8.10
2023-05-16T03:02:47.052Z,7.75
2023-05-16T03:05:17.033Z,8.30
2023-05-16T03:07:44.869Z,8.43
2023-05-16T03:10:12.667Z,7.68
2023-05-16T03:12:40.528Z,8.68
2023-05-16T03:15:09.677Z,8.23
2023-05-16T03:17:37.484Z,8.23
2023-05-16T03:20:08.996Z,8.70
2023-05-16T03:22:38.196Z,8.50
2023-05-16T03:25:07.815Z,8.80
2023-05-16T03:27:36.059Z,8.60
2023-05-16T03:30:03.870Z,9.17
2023-05-16T03:32:31.665Z,9.18
2023-05-16T03:34:59.674Z,8.52
2023-05-16T03:37:27.887Z,8.30
2023-05-16T03:39:57.083Z,8.88
2023-05-16T03:42:24.932Z,9.25
2023-05-16T03:44:52.993Z,8.57
2023-05-16T03:47:20.885Z,9.55
2023-05-16T03:49:48.700Z,9.63
2023-05-16T03:52:16.599Z,9.10
2023-05-16T03:54:44.385Z,9.07
2023-05-16T03:57:13.719Z,8.90
2023-05-16T03:59:41.481Z,9.10
2023-05-16T04:02:09.591Z,9.38
2023-05-16T04:04:37.485Z,9.85
2023-05-16T04:07:06.491Z,10.00
2023-05-16T04:09:34.273Z,10.23
2023-05-16T04:12:03.196Z,10.50
2023-05-16T04:14:33.026Z,10.87
2023-05-16T04:17:01.109Z,9.95
2023-05-16T04:19:28.941Z,10.38
2023-05-16T04:21:57.024Z,11.40
2023-05-16T04:24:26.446Z,10.43
2023-05-16T04:26:54.431Z,11.50
2023-05-16T04:29:22.398Z,10.40
2023-05-16T04:31:51.688Z,11.52
2023-05-16T04:34:19.643Z,10.90
2023-05-16T04:36:47.577Z,11.70
2023-05-16T04:39:15.419Z,11.48
2023-05-16T04:41:43.213Z,11.05
2023-05-16T04:44:11.766Z,11.10
2023-05-16T04:46:39.793Z,10.90
2023-05-16T04:49:09.034Z,11.38
2023-05-16T04:51:36.932Z,10.77
2023-05-16T04:54:04.930Z,11.15
2023-05-16T04:56:32.929Z,11.00
2023-05-16T04:59:00.742Z,11.43
2023-05-16T05:01:28.811Z,13.25
2023-05-16T05:03:56.665Z,11.90
2023-05-16T05:06:25.894Z,11.77
2023-05-16T05:08:54.490Z,12.13
2023-05-16T05:11:23.123Z,11.65
2023-05-16T05:13:52.988Z,11.75
2023-05-16T05:16:21.046Z,11.40
2023-05-16T05:18:49.679Z,11.55
2023-05-16T05:21:18.342Z,11.63
2023-05-16T05:23:49.567Z,11.80
2023-05-16T05:26:17.588Z,11.90
2023-05-16T05:28:53.812Z,11.25
2023-05-16T05:31:25.459Z,12.43
2023-05-16T05:33:53.385Z,11.97
2023-05-16T05:36:21.139Z,12.55
2023-05-16T05:38:50.312Z,13.30
2023-05-16T05:41:18.111Z,12.60
2023-05-16T05:43:46.111Z,13.10
2023-05-16T05:46:13.964Z,13.05
2023-05-16T05:48:41.842Z,13.50
2023-05-16T05:51:09.698Z,13.63
2023-05-16T05:53:37.587Z,13.38
2023-05-16T05:56:06.909Z,14.05
2023-05-16T05:58:34.710Z,14.98
2023-05-16T06:01:02.525Z,14.77
2023-05-16T06:03:30.423Z,15.60
2023-05-16T06:05:58.404Z,14.35
2023-05-16T06:08:26.347Z,14.70
2023-05-16T06:10:54.139Z,15.02
2023-05-16T06:13:23.296Z,15.25
2023-05-16T06:15:51.888Z,15.25
2023-05-16T06:18:19.879Z,14.98
2023-05-16T06:20:47.716Z,16.08
2023-05-16T06:23:15.926Z,15.40
2023-05-16T06:25:43.751Z,16.08
2023-05-16T06:28:11.549Z,15.95
2023-05-16T06:30:40.968Z,15.40
2023-05-16T06:33:08.806Z,16.25
2023-05-16T06:35:36.717Z,16.38
2023-05-16T06:38:04.795Z,15.25
2023-05-16T06:40:32.595Z,15.95
2023-05-16T06:43:00.491Z,15.05
2023-05-16T06:45:28.546Z,15.15
2023-05-16T06:47:58.051Z,15.10
2023-05-16T06:50:25.936Z,14.85
2023-05-16T06:52:53.768Z,14.57
2023-05-16T06:55:21.699Z,14.73
2023-05-16T06:57:49.532Z,14.90
2023-05-16T07:00:18.388Z,15.85
2023-05-16T07:02:46.405Z,14.75
2023-05-16T07:05:15.657Z,14.77
2023-05-16T07:07:43.468Z,14.40
2023-05-16T07:10:12.271Z,15.13
2023-05-16T07:12:43.219Z,14.52
2023-05-16T07:15:12.286Z,14.15
2023-05-16T07:17:40.178Z,14.57
2023-05-16T07:20:13.330Z,14.88
2023-05-16T07:22:42.561Z,15.35
2023-05-16T07:25:12.648Z,14.53
2023-05-16T07:27:41.984Z,15.32
2023-05-16T07:30:11.829Z,15.90
2023-05-16T07:32:39.974Z,14.67
2023-05-16T07:35:09.468Z,16.00
2023-05-16T07:37:37.448Z,15.70
2023-05-16T07:40:08.277Z,16.38
2023-05-16T07:42:36.096Z,15.88
2023-05-16T07:45:04.358Z,15.57
2023-05-16T07:47:32.221Z,15.05
2023-05-16T07:50:00.182Z,15.98
2023-05-16T07:52:28.423Z,15.43
2023-05-16T07:54:56.461Z,16.47
2023-05-16T07:57:26.098Z,16.27
2023-05-16T07:59:54.103Z,16.30
2023-05-16T08:02:22.855Z,16.60
2023-05-16T08:04:50.766Z,16.98
2023-05-16T08:07:18.779Z,16.52
2023-05-16T08:09:46.635Z,17.77
2023-05-16T08:12:14.543Z,18.48
2023-05-16T08:14:43.740Z,17.95
2023-05-16T08:17:11.665Z,17.40
2023-05-16T08:19:39.505Z,18.10
2023-05-16T08:22:08.668Z,19.30
2023-05-16T08:24:36.920Z,19.45
2023-05-16T08:27:05.112Z,18.57
2023-05-16T08:29:32.964Z,19.33
2023-05-16T08:32:02.201Z,19.08
2023-05-16T08:34:32.544Z,20.33
2023-05-16T08:37:01.178Z,18.83
2023-05-16T08:39:30.522Z,20.98
2023-05-16T08:41:58.875Z,19.40
2023-05-16T08:44:27.067Z,21.05
2023-05-16T08:46:55.421Z,20.92
2023-05-16T08:49:27.858Z,20.55
2023-05-16T08:51:58.716Z,21.73
2023-05-16T08:54:28.153Z,21.42
2023-05-16T08:56:57.127Z,21.45
2023-05-16T08:59:25.672Z,21.58
2023-05-16T09:01:53.621Z,21.77
2023-05-16T09:04:22.063Z,21.63
2023-05-16T09:06:51.538Z,20.48
2023-05-16T09:09:19.732Z,21.60
2023-05-16T09:11:47.935Z,22.10
2023-05-16T09:14:15.795Z,19.60
2023-05-16T09:16:43.729Z,18.33
2023-05-16T09:19:14.200Z,19.13
2023-05-16T09:21:42.836Z,19.10
2023-05-16T09:24:12.167Z,19.85
2023-05-16T09:26:40.608Z,19.20
2023-05-16T09:29:12.661Z,19.63
2023-05-16T09:31:40.907Z,19.90
2023-05-16T09:34:11.313Z,19.30
2023-05-16T09:36:40.145Z,20.38
2023-05-16T09:39:11.491Z,19.65
2023-05-16T09:41:39.496Z,20.80
2023-05-16T09:44:08.048Z,21.48
2023-05-16T09:46:36.860Z,20.50
2023-05-16T09:49:04.743Z,19.80
2023-05-16T09:51:33.396Z,19.58
2023-05-16T09:54:01.531Z,21.13
2023-05-16T09:56:30.770Z,20.13
2023-05-16T09:58:58.600Z,20.10
2023-05-16T10:01:26.816Z,19.42
2023-05-16T10:03:54.787Z,18.27
2023-05-16T10:06:23.000Z,18.60
2023-05-16T10:08:51.759Z,17.25
2023-05-16T10:11:20.262Z,17.50
2023-05-16T10:13:53.401Z,16.70
2023-05-16T10:16:23.748Z,17.42
2023-05-16T10:18:52.253Z,16.98
2023-05-16T10:21:23.079Z,18.40
2023-05-16T10:23:53.525Z,18.60
2023-05-16T10:26:22.276Z,19.48
2023-05-16T10:28:52.394Z,21.08
2023-05-16T10:31:20.739Z,22.13
2023-05-16T10:33:48.828Z,22.05
2023-05-16T10:36:18.351Z,23.25
2023-05-16T10:38:47.712Z,23.30
2023-05-16T10:41:15.888Z,23.30
2023-05-16T10:43:46.443Z,23.00
2023-05-16T10:46:15.781Z,24.93
2023-05-16T10:48:43.704Z,25.63
2023-05-16T10:51:34.857Z,25.83
2023-05-16T10:54:06.531Z,26.40
2023-05-16T10:56:35.031Z,25.85
2023-05-16T10:59:04.655Z,26.10
2023-05-16T11:01:36.151Z,26.90
2023-05-16T11:04:10.374Z,27.10
2023-05-16T11:06:51.879Z,25.95
2023-05-16T11:09:26.512Z,26.17
2023-05-16T11:12:00.105Z,26.27
2023-05-16T11:14:30.300Z,25.33
2023-05-16T11:17:04.368Z,25.98
2023-05-16T11:19:34.953Z,25.77
2023-05-16T11:22:26.768Z,26.63
2023-05-16T11:24:57.586Z,27.80
2023-05-16T11:27:30.867Z,28.40
2023-05-16T11:30:03.678Z,27.25
2023-05-16T11:32:35.593Z,27.77
2023-05-16T11:35:04.481Z,28.13
2023-05-16T11:37:32.495Z,27.90
2023-05-16T11:40:01.310Z,28.95
2023-05-16T11:42:33.812Z,28.58
2023-05-16T11:45:06.676Z,29.60
2023-05-16T11:47:38.236Z,28.80
2023-05-16T11:50:07.952Z,27.67
2023-05-16T11:52:35.954Z,25.53
2023-05-16T11:55:05.242Z,24.05
2023-05-16T11:57:33.685Z,25.10
2023-05-16T12:00:06.354Z,25.27
2023-05-16T12:02:35.659Z,23.35
2023-05-16T12:05:10.014Z,23.40
2023-05-16T12:07:38.224Z,21.63
2023-05-16T12:10:07.546Z,22.27
2023-05-16T12:12:35.675Z,22.00
2023-05-16T12:15:04.851Z,23.50
2023-05-16T12:17:33.001Z,21.58
2023-05-16T12:20:05.759Z,22.38
2023-05-16T12:22:33.948Z,22.25
2023-05-16T12:25:16.566Z,21.42
2023-05-16T12:27:45.913Z,21.45
2023-05-16T12:30:14.809Z,22.13
2023-05-16T12:32:42.994Z,24.25
2023-05-16T12:35:13.867Z,23.65
2023-05-16T12:37:44.377Z,23.77
2023-05-16T12:40:13.287Z,23.23
2023-05-16T12:42:41.335Z,23.55
2023-05-16T12:45:17.310Z,22.92
2023-05-16T12:47:45.730Z,25.63
2023-05-16T12:50:17.382Z,25.10
2023-05-16T12:52:50.516Z,23.58
2023-05-16T12:55:18.511Z,23.35
2023-05-16T12:57:47.634Z,24.03
2023-05-16T13:00:18.782Z,23.85
2023-05-16T13:02:47.274Z,24.67
2023-05-16T13:05:17.469Z,25.05
2023-05-16T13:07:45.550Z,26.38
2023-05-16T13:10:13.484Z,24.20
2023-05-16T13:12:42.358Z,24.02
2023-05-16T13:15:11.702Z,24.02
2023-05-16T13:17:40.674Z,24.35
2023-05-16T13:20:10.482Z,25.50
2023-05-16T13:22:40.090Z,22.73
2023-05-16T13:25:10.419Z,14.35
2023-05-16T13:27:38.497Z,13.93
2023-05-16T13:30:09.458Z,12.00
2023-05-16T13:32:37.990Z,12.25
2023-05-16T13:35:06.805Z,12.27
2023-05-16T13:37:34.732Z,13.43
2023-05-16T13:40:04.380Z,14.70
2023-05-16T13:42:32.361Z,13.90
2023-05-16T13:45:01.453Z,15.23
2023-05-16T13:47:29.527Z,14.25
2023-05-16T13:49:57.474Z,13.68
2023-05-16T13:52:25.372Z,14.35
2023-05-16T13:54:53.397Z,12.85
2023-05-16T13:57:23.284Z,12.55
2023-05-16T14:02:23.002Z,11.77
2023-05-16T14:04:50.924Z,11.95
2023-05-16T14:07:18.798Z,12.05
2023-05-16T14:09:46.626Z,11.57
2023-05-16T14:12:14.465Z,11.30
2023-05-16T14:14:43.733Z,11.48
2023-05-16T14:17:11.524Z,11.90
2023-05-16T14:19:39.850Z,11.40
2023-05-16T14:22:08.093Z,12.13
2023-05-16T14:24:35.905Z,12.43
2023-05-16T14:27:03.767Z,11.50
2023-05-16T14:29:31.745Z,11.05
2023-05-16T14:32:00.954Z,11.75
2023-05-16T14:34:28.946Z,12.10
2023-05-16T14:36:56.788Z,12.13
2023-05-16T14:39:24.618Z,11.43
2023-05-16T14:41:52.422Z,11.48
2023-05-16T14:44:21.660Z,10.60
2023-05-16T14:46:49.552Z,10.27
2023-05-16T14:49:19.153Z,11.13
2023-05-16T14:51:49.220Z,11.30
2023-05-16T14:54:17.285Z,11.20
2023-05-16T14:56:45.723Z,12.15
2023-05-16T14:59:14.200Z,12.55
2023-05-16T15:01:42.174Z,12.45
2023-05-16T15:04:10.162Z,12.40
2023-05-16T15:06:39.328Z,12.32
2023-05-16T15:09:09.508Z,12.70
2023-05-16T15:11:37.340Z,12.55
2023-05-16T15:14:05.183Z,12.93
2023-05-16T15:16:33.113Z,12.87
2023-05-16T15:19:01.058Z,12.70
2023-05-16T15:21:29.107Z,13.52
2023-05-16T15:23:58.309Z,12.35
2023-05-16T15:26:26.608Z,13.02
2023-05-16T15:28:55.619Z,13.57
2023-05-16T15:31:23.548Z,12.65
2023-05-16T15:33:51.615Z,13.02
2023-05-16T15:36:19.468Z,13.20
2023-05-16T15:38:47.523Z,13.85
2023-05-16T15:41:32.110Z,13.77
2023-05-16T15:44:05.694Z,13.90
2023-05-16T15:46:33.793Z,13.98
2023-05-16T15:49:01.748Z,13.80
2023-05-16T15:51:29.595Z,13.93
2023-05-16T15:53:57.413Z,14.80
2023-05-16T15:56:26.690Z,13.77
2023-05-16T15:58:56.925Z,13.40
2023-05-16T16:01:24.992Z,15.82
2023-05-16T16:03:53.060Z,14.98
2023-05-16T16:06:21.942Z,14.60
2023-05-16T16:08:49.954Z,15.43
2023-05-16T16:11:17.796Z,15.40
2023-05-16T16:13:46.998Z,15.07
2023-05-16T16:16:15.751Z,15.10
2023-05-16T16:18:44.664Z,15.18
2023-05-16T16:21:13.046Z,16.65
2023-05-16T16:23:41.163Z,15.95
2023-05-16T16:26:09.025Z,15.53
2023-05-16T16:28:36.970Z,16.60
2023-05-16T16:31:06.364Z,15.90
2023-05-16T16:33:34.489Z,17.77
2023-05-16T16:36:02.642Z,18.17
2023-05-16T16:38:30.515Z,17.90
2023-05-16T16:40:58.976Z,17.83
2023-05-16T16:43:26.936Z,18.35
2023-05-16T16:45:57.453Z,19.20
2023-05-16T16:48:27.947Z,19.00
2023-05-16T16:50:56.641Z,18.92
2023-05-16T16:53:24.850Z,19.42
2023-05-16T16:55:52.779Z,19.90
2023-05-16T16:58:21.068Z,20.13
2023-05-16T17:00:49.209Z,20.83
2023-05-16T17:03:17.347Z,20.48
2023-05-16T17:05:48.788Z,21.15
2023-05-16T17:08:16.666Z,20.98
2023-05-16T17:10:44.579Z,20.80
2023-05-16T17:13:14.629Z,22.30
2023-05-16T17:15:45.932Z,22.40
2023-05-16T17:18:14.783Z,22.10
2023-05-16T17:20:43.191Z,22.45
2023-05-16T17:23:12.332Z,21.92
2023-05-16T17:25:40.332Z,23.05
2023-05-16T17:28:08.234Z,22.45
2023-05-16T17:30:36.373Z,23.25
2023-05-16T17:33:04.448Z,23.73
2023-05-16T17:35:32.547Z,24.30
2023-05-16T17:38:00.417Z,24.90
2023-05-16T17:40:29.595Z,26.08
2023-05-16T17:42:57.449Z,25.77
2023-05-16T17:45:26.125Z,25.83
2023-05-16T17:47:54.293Z,23.95
2023-05-16T17:50:22.944Z,24.50
2023-05-16T17:52:50.826Z,25.10
2023-05-16T17:55:18.690Z,24.60
2023-05-16T17:57:48.003Z,23.65
2023-05-16T18:00:17.743Z,23.35
2023-05-16T18:02:45.880Z,23.33
2023-05-16T18:05:13.884Z,22.75
2023-05-16T18:07:42.053Z,22.38
2023-05-16T18:10:11.426Z,22.00
2023-05-16T18:12:39.812Z,21.73
2023-05-16T18:15:10.693Z,22.75
2023-05-16T18:17:38.736Z,22.52
2023-05-16T18:20:10.746Z,22.40
2023-05-16T18:22:39.287Z,22.55
2023-05-16T18:25:09.192Z,23.38
2023-05-16T18:27:37.565Z,23.15
2023-05-16T18:30:07.184Z,22.75
2023-05-16T18:32:37.167Z,24.10
2023-05-16T18:35:05.483Z,24.23
2023-05-16T18:37:33.404Z,24.20
2023-05-16T18:40:01.344Z,23.35
2023-05-16T18:42:29.634Z,24.87
2023-05-16T18:44:57.604Z,20.40
2023-05-16T18:47:25.646Z,20.70
2023-05-16T18:49:55.010Z,18.88
2023-05-16T18:52:23.001Z,19.17
2023-05-16T18:54:50.875Z,18.02
2023-05-16T18:57:19.038Z,16.88
2023-05-16T18:59:46.906Z,16.50
2023-05-16T19:02:14.754Z,16.47
2023-05-16T19:04:42.683Z,17.08
2023-05-16T19:07:12.520Z,16.38
2023-05-16T19:09:43.493Z,15.77
2023-05-16T19:12:11.398Z,16.25
2023-05-16T19:14:39.254Z,15.38
2023-05-16T19:17:07.242Z,16.27
2023-05-16T19:19:35.123Z,15.95
2023-05-16T19:22:03.165Z,14.82
2023-05-16T19:24:32.332Z,14.50
2023-05-16T19:27:00.245Z,14.90
2023-05-16T19:29:28.138Z,14.48
2023-05-16T19:31:55.929Z,14.07
2023-05-16T19:34:26.527Z,14.88
2023-05-16T19:36:54.616Z,14.57
2023-05-16T19:39:22.403Z,13.85
2023-05-16T19:41:52.433Z,14.73
2023-05-16T19:44:20.412Z,15.80
2023-05-16T19:46:48.265Z,13.93
2023-05-16T19:49:18.901Z,14.02
2023-05-16T19:51:49.203Z,13.88
2023-05-16T19:54:17.092Z,13.85
2023-05-16T19:56:44.936Z,13.40
2023-05-16T19:59:14.173Z,11.65
2023-05-16T20:01:42.072Z,12.20
2023-05-16T20:04:10.295Z,12.00
2023-05-16T20:06:38.314Z,12.55
2023-05-16T20:09:06.427Z,13.25
2023-05-16T20:11:35.360Z,11.70
2023-05-16T20:14:03.323Z,11.32
2023-05-16T20:16:32.784Z,12.10
2023-05-16T20:19:00.752Z,11.45
2023-05-16T20:21:28.644Z,12.03
2023-05-16T20:23:56.515Z,11.93
2023-05-16T20:26:24.324Z,11.80
2023-05-16T20:28:52.145Z,12.00
2023-05-16T20:31:19.976Z,12.18
2023-05-16T20:33:50.002Z,11.23
2023-05-16T20:36:18.023Z,11.55
2023-05-16T20:38:45.870Z,11.32
2023-05-16T20:41:13.798Z,10.38
2023-05-16T20:43:41.680Z,10.43
2023-05-16T20:46:09.721Z,10.55
2023-05-16T20:48:37.700Z,9.30
2023-05-16T20:51:07.118Z,9.50
2023-05-16T20:53:34.994Z,8.80
2023-05-16T20:56:02.853Z,8.30
2023-05-16T20:58:30.703Z,9.00
2023-05-16T21:00:58.630Z,8.15
2023-05-16T21:03:26.556Z,7.35
2023-05-16T21:05:54.458Z,7.85
2023-05-16T21:08:23.769Z,7.85
2023-05-16T21:10:51.709Z,7.47
2023-05-16T21:13:19.522Z,7.90
2023-05-16T21:15:47.374Z,6.80
2023-05-16T21:18:15.342Z,7.35
2023-05-16T21:20:43.276Z,7.65
2023-05-16T21:23:11.119Z,7.17
2023-05-16T21:25:40.967Z,6.25
2023-05-16T21:28:08.755Z,6.85
2023-05-16T21:30:36.560Z,6.32
2023-05-16T21:33:04.488Z,5.70
2023-05-16T21:35:32.449Z,6.00
2023-05-16T21:38:00.293Z,6.05
2023-05-16T21:40:28.778Z,5.93
2023-05-16T21:42:57.920Z,5.93
2023-05-16T21:45:25.969Z,6.32
2023-05-16T21:47:54.028Z,5.35
2023-05-16T21:50:22.232Z,5.00
2023-05-16T21:52:50.336Z,4.38
2023-05-16T21:55:18.173Z,5.38
2023-05-16T21:57:45.997Z,6.15
2023-05-16T22:00:16.793Z,5.53
2023-05-16T22:02:44.826Z,5.07
2023-05-16T22:05:13.504Z,5.63
2023-05-16T22:07:41.602Z,4.20
2023-05-16T22:10:10.718Z,4.70
2023-05-16T22:12:39.085Z,5.22
2023-05-16T22:15:08.700Z,5.18
2023-05-16T22:17:38.129Z,4.00
2023-05-16T22:20:07.192Z,5.22
2023-05-16T22:22:35.265Z,6.03
2023-05-16T22:25:04.938Z,4.68
2023-05-16T22:27:32.757Z,3.67
2023-05-16T22:30:00.657Z,6.40
2023-05-16T22:32:28.587Z,5.38
2023-05-16T22:34:57.853Z,4.65
2023-05-16T22:37:26.788Z,6.10
2023-05-16T22:39:56.170Z,5.20
2023-05-16T22:42:24.133Z,6.53
2023-05-16T22:44:51.984Z,5.20
2023-05-16T22:47:19.882Z,5.75
2023-05-16T22:49:47.750Z,4.07
2023-05-16T22:52:16.930Z,5.20
2023-05-16T22:54:44.743Z,4.80
2023-05-16T22:57:12.572Z,4.30
2023-05-16T22:59:40.509Z,6.50
2023-05-16T23:02:08.346Z,6.18
2023-05-16T23:04:36.233Z,4.70
2023-05-16T23:07:04.187Z,3.97
2023-05-16T23:09:33.325Z,5.95
2023-05-16T23:12:01.548Z,6.35
2023-05-16T23:14:29.425Z,5.15
2023-05-16T23:16:57.228Z,4.40
2023-05-16T23:19:25.189Z,4.68
2023-05-16T23:21:53.173Z,5.65
2023-05-16T23:24:21.104Z,6.57
2023-05-16T23:26:50.286Z,4.53
2023-05-16T23:29:18.100Z,3.67
2023-05-16T23:31:46.300Z,4.90
2023-05-16T23:34:14.293Z,6.10
2023-05-16T23:36:42.600Z,6.18
2023-05-16T23:39:10.653Z,3.70
2023-05-16T23:41:38.434Z,5.93
2023-05-16T23:44:07.692Z,4.97
2023-05-16T23:46:35.520Z,4.55
2023-05-16T23:49:03.518Z,4.45
2023-05-16T23:51:42.159Z,5.30
2023-05-16T23:54:19.209Z,5.43
2023-05-16T23:56:47.025Z,6.75
2023-05-16T23:59:18.784Z,5.47
